createdAt,value
2023-02-14T00:01:41.588Z,6.34
2023-02-14T00:04:09.746Z,6.29
2023-02-14T00:06:38.960Z,6.17
2023-02-14T00:09:08.608Z,6.13
2023-02-14T00:11:38.475Z,6.22
2023-02-14T00:14:24.776Z,6.22
2023-02-14T00:16:52.928Z,6.27
2023-02-14T00:19:22.811Z,6.31
2023-02-14T00:21:51.569Z,6.34
2023-02-14T00:24:22.571Z,6.34
2023-02-14T00:26:53.350Z,6.30
2023-02-14T00:29:24.566Z,6.32
2023-02-14T00:31:53.349Z,6.33
2023-02-14T00:34:21.981Z,6.26
2023-02-14T00:36:50.358Z,6.20
2023-02-14T00:39:20.229Z,6.17
2023-02-14T00:41:48.564Z,6.13
2023-02-14T00:44:19.461Z,6.12
2023-02-14T00:46:47.501Z,6.17
2023-02-14T00:49:15.613Z,6.13
2023-02-14T00:51:43.769Z,6.09
2023-02-14T00:54:11.839Z,6.14
2023-02-14T00:56:39.922Z,6.19
2023-02-14T00:59:10.756Z,6.15
2023-02-14T01:01:40.550Z,6.04
2023-02-14T01:04:09.216Z,5.99
2023-02-14T01:06:37.717Z,6.01
2023-02-14T01:09:06.323Z,6.02
2023-02-14T01:11:34.583Z,5.99
2023-02-14T01:14:04.278Z,5.99
2023-02-14T01:16:32.458Z,5.81
2023-02-14T01:19:27.467Z,5.61
2023-02-14T01:21:55.525Z,5.61
2023-02-14T01:24:25.160Z,5.63
2023-02-14T01:26:53.205Z,5.66
2023-02-14T01:29:21.238Z,5.41
2023-02-14T01:31:49.412Z,5.39
2023-02-14T01:34:18.669Z,5.39
2023-02-14T01:36:49.585Z,5.33
2023-02-14T01:39:18.519Z,5.42
2023-02-14T01:41:48.940Z,5.48
2023-02-14T01:45:00.490Z,5.45
2023-02-14T01:47:31.997Z,5.45
2023-02-14T01:50:05.787Z,5.54
2023-02-14T01:52:39.523Z,5.48
2023-02-14T01:55:15.132Z,5.55
2023-02-14T01:57:49.456Z,5.53
2023-02-14T02:00:37.091Z,5.60
2023-02-14T02:03:13.381Z,5.56
2023-02-14T02:05:48.077Z,5.67
2023-02-14T02:08:20.000Z,5.64
2023-02-14T02:10:48.348Z,5.64
2023-02-14T02:13:23.699Z,5.71
2023-02-14T02:16:09.170Z,5.76
2023-02-14T02:18:54.704Z,5.65
2023-02-14T02:22:15.507Z,5.62
2023-02-14T02:24:56.000Z,5.63
2023-02-14T02:27:53.530Z,5.67
2023-02-14T02:31:08.832Z,5.65
2023-02-14T02:34:17.083Z,5.78
2023-02-14T02:37:10.937Z,5.69
2023-02-14T02:39:55.394Z,5.62
2023-02-14T02:42:35.069Z,5.66
2023-02-14T02:45:13.597Z,5.67
2023-02-14T02:47:50.305Z,5.56
2023-02-14T02:50:53.085Z,5.58
2023-02-14T02:53:28.444Z,5.63
2023-02-14T02:56:20.318Z,5.67
2023-02-14T02:58:55.257Z,5.54
2023-02-14T03:01:27.940Z,5.54
2023-02-14T03:04:15.836Z,5.57
2023-02-14T03:06:46.176Z,5.56
2023-02-14T03:09:57.730Z,5.50
2023-02-14T03:13:20.131Z,5.46
2023-02-14T03:16:14.263Z,5.46
2023-02-14T03:19:27.559Z,5.51
2023-02-14T03:22:02.734Z,5.52
2023-02-14T03:24:45.905Z,5.46
2023-02-14T03:27:21.064Z,5.44
2023-02-14T03:30:01.946Z,5.39
2023-02-14T03:32:37.503Z,5.44
2023-02-14T03:35:16.137Z,5.39
2023-02-14T03:37:50.680Z,5.36
2023-02-14T03:40:26.973Z,5.35
2023-02-14T03:42:59.749Z,5.33
2023-02-14T03:45:34.139Z,5.33
2023-02-14T03:48:07.778Z,5.30
2023-02-14T03:50:37.882Z,5.23
2023-02-14T03:53:08.959Z,5.25
2023-02-14T03:55:46.659Z,5.24
2023-02-14T03:58:22.291Z,5.20
2023-02-14T04:00:54.053Z,5.09
2023-02-14T04:03:26.078Z,5.11
2023-02-14T04:05:54.588Z,5.08
2023-02-14T04:08:24.592Z,4.94
2023-02-14T04:10:55.129Z,4.96
2023-02-14T04:13:23.309Z,4.91
2023-02-14T04:15:51.374Z,4.91
2023-02-14T04:18:37.170Z,5.02
2023-02-14T04:21:08.712Z,4.90
2023-02-14T04:23:36.726Z,4.88
2023-02-14T04:26:06.350Z,4.79
2023-02-14T04:28:34.852Z,4.86
2023-02-14T04:31:04.560Z,4.81
2023-02-14T04:33:32.935Z,4.71
2023-02-14T04:36:01.921Z,4.79
2023-02-14T04:38:30.103Z,4.78
2023-02-14T04:40:58.500Z,4.76
2023-02-14T04:43:27.975Z,4.84
2023-02-14T04:45:58.653Z,4.98
2023-02-14T04:48:28.418Z,5.04
2023-02-14T04:50:57.731Z,5.09
2023-02-14T04:53:25.792Z,5.12
2023-02-14T04:55:53.819Z,5.11
2023-02-14T04:58:21.825Z,5.13
2023-02-14T05:00:51.294Z,5.13
2023-02-14T05:03:19.338Z,5.12
2023-02-14T05:05:48.580Z,5.16
2023-02-14T05:08:16.622Z,5.20
2023-02-14T05:10:45.189Z,5.13
2023-02-14T05:13:13.653Z,5.10
2023-02-14T05:15:41.718Z,5.10
2023-02-14T05:18:11.078Z,5.04
2023-02-14T05:20:39.091Z,5.08
2023-02-14T05:23:13.400Z,4.88
2023-02-14T05:25:42.629Z,4.90
2023-02-14T05:28:11.121Z,4.86
2023-02-14T05:30:39.663Z,4.84
2023-02-14T05:33:08.073Z,4.88
2023-02-14T05:35:37.722Z,4.83
2023-02-14T05:38:05.736Z,4.63
2023-02-14T05:40:33.907Z,4.55
2023-02-14T05:43:01.972Z,4.60
2023-02-14T05:45:30.121Z,4.49
2023-02-14T05:47:58.152Z,4.53
2023-02-14T05:50:26.266Z,4.65
2023-02-14T05:52:56.888Z,4.61
2023-02-14T05:55:26.192Z,4.60
2023-02-14T05:57:54.272Z,4.64
2023-02-14T06:00:24.748Z,4.57
2023-02-14T06:02:52.876Z,4.48
2023-02-14T06:05:21.034Z,4.46
2023-02-14T06:07:51.182Z,4.50
2023-02-14T06:10:23.797Z,4.56
2023-02-14T06:12:53.666Z,4.55
2023-02-14T06:15:22.124Z,4.62
2023-02-14T06:17:53.963Z,4.60
2023-02-14T06:20:24.209Z,4.51
2023-02-14T06:22:53.217Z,4.56
2023-02-14T06:25:23.669Z,4.55
2023-02-14T06:27:52.270Z,4.65
2023-02-14T06:30:20.378Z,4.63
2023-02-14T06:32:48.420Z,4.54
2023-02-14T06:35:16.821Z,4.59
2023-02-14T06:37:45.337Z,4.61
2023-02-14T06:40:15.266Z,4.58
2023-02-14T06:42:44.629Z,4.52
2023-02-14T06:45:12.978Z,4.40
2023-02-14T06:47:41.114Z,4.37
2023-02-14T06:50:11.623Z,4.44
2023-02-14T06:52:42.142Z,4.53
2023-02-14T06:55:12.138Z,4.55
2023-02-14T06:57:40.320Z,4.60
2023-02-14T07:00:11.588Z,4.53
2023-02-14T07:02:39.718Z,4.56
2023-02-14T07:05:08.010Z,4.58
2023-02-14T07:07:36.028Z,4.57
2023-02-14T07:10:04.505Z,4.64
2023-02-14T07:12:32.489Z,4.58
2023-02-14T07:15:00.449Z,4.64
2023-02-14T07:17:29.844Z,4.75
2023-02-14T07:19:57.810Z,4.76
2023-02-14T07:22:25.926Z,4.78
2023-02-14T07:24:53.967Z,4.76
2023-02-14T07:27:22.095Z,4.79
2023-02-14T07:29:50.156Z,4.80
2023-02-14T07:32:18.509Z,4.88
2023-02-14T07:34:48.244Z,4.97
2023-02-14T07:37:16.718Z,4.94
2023-02-14T07:39:44.978Z,4.97
2023-02-14T07:42:13.431Z,5.15
2023-02-14T07:44:42.054Z,5.26
2023-02-14T07:47:11.241Z,5.23
2023-02-14T07:49:39.323Z,5.44
2023-02-14T07:52:08.763Z,5.58
2023-02-14T07:54:38.614Z,5.63
2023-02-14T07:57:07.170Z,5.72
2023-02-14T07:59:35.527Z,5.83
2023-02-14T08:02:03.772Z,5.94
2023-02-14T08:04:33.818Z,6.11
2023-02-14T08:07:01.953Z,6.22
2023-02-14T08:09:31.610Z,6.36
2023-02-14T08:12:18.270Z,6.56
2023-02-14T08:14:46.995Z,6.68
2023-02-14T08:17:15.482Z,6.86
2023-02-14T08:19:43.483Z,6.99
2023-02-14T08:22:11.526Z,7.01
2023-02-14T08:24:40.863Z,7.12
2023-02-14T08:27:08.882Z,7.22
2023-02-14T08:29:38.838Z,7.28
2023-02-14T08:32:07.238Z,7.41
2023-02-14T08:34:35.250Z,7.55
2023-02-14T08:37:03.336Z,7.63
2023-02-14T08:39:32.951Z,7.70
2023-02-14T08:42:02.336Z,7.81
2023-02-14T08:44:30.353Z,7.94
2023-02-14T08:46:58.672Z,7.98
2023-02-14T08:49:27.018Z,8.16
2023-02-14T08:51:55.260Z,8.29
2023-02-14T08:54:23.335Z,8.31
2023-02-14T08:56:51.626Z,8.41
2023-02-14T08:59:21.063Z,8.52
2023-02-14T09:01:53.467Z,8.65
2023-02-14T09:04:24.146Z,8.81
2023-02-14T09:06:52.280Z,8.90
2023-02-14T09:09:20.597Z,8.99
2023-02-14T09:11:48.662Z,9.03
2023-02-14T09:14:17.262Z,9.10
2023-02-14T09:16:46.723Z,9.24
2023-02-14T09:19:14.910Z,9.36
2023-02-14T09:21:42.990Z,9.47
2023-02-14T09:24:11.473Z,9.51
2023-02-14T09:26:42.081Z,9.61
2023-02-14T09:29:13.653Z,9.73
2023-02-14T09:31:41.754Z,9.81
2023-02-14T09:34:11.231Z,9.86
2023-02-14T09:36:39.279Z,10.03
2023-02-14T09:39:07.543Z,10.09
2023-02-14T09:42:10.175Z,10.17
2023-02-14T09:44:42.663Z,10.26
2023-02-14T09:47:23.032Z,10.38
2023-02-14T09:49:54.123Z,10.43
2023-02-14T09:52:27.796Z,10.51
2023-02-14T09:54:59.249Z,10.62
2023-02-14T09:57:39.981Z,10.72
2023-02-14T10:00:21.543Z,10.90
2023-02-14T10:03:09.810Z,11.04
2023-02-14T10:05:49.486Z,11.09
2023-02-14T10:08:33.756Z,11.21
2023-02-14T10:11:08.501Z,11.31
2023-02-14T10:13:42.176Z,11.44
2023-02-14T10:16:27.125Z,11.50
2023-02-14T10:19:01.406Z,11.56
2023-02-14T10:21:41.970Z,11.58
2023-02-14T10:24:17.481Z,11.68
2023-02-14T10:26:49.277Z,11.71
2023-02-14T10:29:20.688Z,11.78
2023-02-14T10:31:57.878Z,11.84
2023-02-14T10:34:36.960Z,11.99
2023-02-14T10:37:25.557Z,12.05
2023-02-14T10:40:17.573Z,12.08
2023-02-14T10:42:55.098Z,12.14
2023-02-14T10:45:33.270Z,12.24
2023-02-14T10:48:16.552Z,12.32
2023-02-14T10:50:53.761Z,12.18
2023-02-14T10:53:29.338Z,12.13
2023-02-14T10:56:04.636Z,11.95
2023-02-14T10:58:37.526Z,11.85
2023-02-14T11:01:12.061Z,11.64
2023-02-14T11:03:53.779Z,11.46
2023-02-14T11:06:22.290Z,11.46
2023-02-14T11:08:51.756Z,11.30
2023-02-14T11:11:30.252Z,11.34
2023-02-14T11:13:58.438Z,11.23
2023-02-14T11:16:35.018Z,11.22
2023-02-14T11:19:21.059Z,11.28
2023-02-14T11:21:51.497Z,11.49
2023-02-14T11:24:31.573Z,11.43
2023-02-14T11:27:03.269Z,11.56
2023-02-14T11:29:34.835Z,11.67
2023-02-14T11:32:10.198Z,11.73
2023-02-14T11:34:41.818Z,11.80
2023-02-14T11:37:27.781Z,11.70
2023-02-14T11:40:01.471Z,11.65
2023-02-14T11:42:43.437Z,11.64
2023-02-14T11:45:35.050Z,11.58
2023-02-14T11:48:34.890Z,11.65
2023-02-14T11:51:09.134Z,11.62
2023-02-14T11:53:45.977Z,11.65
2023-02-14T11:56:16.602Z,11.50
2023-02-14T11:58:55.347Z,11.48
2023-02-14T12:01:27.626Z,11.55
2023-02-14T12:04:00.716Z,11.60
2023-02-14T12:06:32.343Z,11.58
2023-02-14T12:09:13.709Z,11.49
2023-02-14T12:11:54.866Z,11.42
2023-02-14T12:14:25.599Z,11.32
2023-02-14T12:17:01.523Z,11.27
2023-02-14T12:19:38.191Z,11.41
2023-02-14T12:22:07.780Z,11.33
2023-02-14T12:24:42.397Z,11.38
2023-02-14T12:27:22.445Z,11.38
2023-02-14T12:29:54.770Z,11.39
2023-02-14T12:32:25.984Z,11.45
2023-02-14T12:35:01.778Z,11.46
2023-02-14T12:37:48.778Z,11.56
2023-02-14T12:40:28.833Z,11.50
2023-02-14T12:43:47.826Z,11.48
2023-02-14T12:46:35.083Z,11.51
2023-02-14T12:49:32.546Z,11.45
2023-02-14T12:52:14.158Z,11.56
2023-02-14T12:54:59.674Z,11.62
2023-02-14T12:57:41.440Z,11.53
2023-02-14T13:00:29.745Z,11.46
2023-02-14T13:03:48.852Z,11.55
2023-02-14T13:06:25.468Z,11.60
2023-02-14T13:09:13.718Z,11.74
2023-02-14T13:11:58.598Z,11.71
2023-02-14T13:14:57.714Z,11.75
2023-02-14T13:17:36.935Z,11.75
2023-02-14T13:20:25.844Z,11.79
2023-02-14T13:22:56.789Z,11.76
2023-02-14T13:25:31.754Z,11.85
2023-02-14T13:28:02.387Z,11.83
2023-02-14T13:30:33.735Z,11.83
2023-02-14T13:33:09.259Z,11.87
2023-02-14T13:35:38.513Z,11.96
2023-02-14T13:38:13.404Z,12.03
2023-02-14T13:40:42.175Z,12.04
2023-02-14T13:43:10.212Z,12.18
2023-02-14T13:45:55.797Z,12.06
2023-02-14T13:48:28.523Z,12.10
2023-02-14T13:50:59.991Z,12.23
2023-02-14T13:53:39.427Z,12.16
2023-02-14T13:56:35.772Z,12.18
2023-02-14T13:59:06.949Z,12.22
2023-02-14T14:01:40.447Z,12.22
2023-02-14T14:04:38.349Z,12.09
2023-02-14T14:07:27.053Z,12.18
2023-02-14T14:10:04.290Z,12.03
2023-02-14T14:12:40.773Z,12.14
2023-02-14T14:15:22.121Z,12.00
2023-02-14T14:18:38.371Z,12.06
2023-02-14T14:21:23.838Z,12.08
2023-02-14T14:24:13.432Z,11.99
2023-02-14T14:26:44.833Z,12.06
2023-02-14T14:29:20.268Z,12.16
2023-02-14T14:31:55.281Z,12.00
2023-02-14T14:34:26.027Z,12.06
2023-02-14T14:37:05.499Z,12.00
2023-02-14T14:39:39.748Z,12.04
2023-02-14T14:42:10.675Z,12.00
2023-02-14T14:44:46.150Z,11.87
2023-02-14T14:47:20.775Z,11.89
2023-02-14T14:49:49.570Z,11.89
2023-02-14T14:52:35.372Z,11.94
2023-02-14T14:55:05.758Z,11.82
2023-02-14T14:57:36.120Z,11.83
2023-02-14T15:00:20.412Z,11.71
2023-02-14T15:03:05.609Z,11.72
2023-02-14T15:05:36.705Z,11.73
2023-02-14T15:08:33.609Z,11.69
2023-02-14T15:11:07.450Z,11.59
2023-02-14T15:13:50.465Z,11.39
2023-02-14T15:16:22.052Z,11.44
2023-02-14T15:18:52.128Z,11.47
2023-02-14T15:21:20.430Z,11.55
2023-02-14T15:23:50.349Z,11.48
2023-02-14T15:26:24.133Z,11.55
2023-02-14T15:28:58.058Z,11.41
2023-02-14T15:31:32.281Z,11.55
2023-02-14T15:34:02.800Z,11.58
2023-02-14T15:36:33.195Z,11.59
2023-02-14T15:39:06.611Z,11.63
2023-02-14T15:41:34.691Z,11.56
2023-02-14T15:44:02.698Z,11.47
2023-02-14T15:46:36.509Z,11.47
2023-02-14T15:49:11.420Z,11.42
2023-02-14T15:51:40.710Z,11.38
2023-02-14T15:54:21.886Z,11.36
2023-02-14T15:56:53.220Z,11.14
2023-02-14T15:59:23.752Z,11.13
2023-02-14T16:01:56.563Z,11.54
2023-02-14T16:04:26.595Z,11.21
2023-02-14T16:07:22.399Z,11.16
2023-02-14T16:10:20.544Z,11.17
2023-02-14T16:13:01.177Z,11.06
2023-02-14T16:15:33.287Z,11.01
2023-02-14T16:18:06.937Z,11.08
2023-02-14T16:20:45.179Z,11.01
2023-02-14T16:23:26.869Z,10.99
2023-02-14T16:25:58.216Z,10.92
2023-02-14T16:28:30.918Z,10.90
2023-02-14T16:31:02.802Z,10.80
2023-02-14T16:33:35.162Z,10.80
2023-02-14T16:36:09.214Z,10.82
2023-02-14T16:38:43.808Z,10.86
2023-02-14T16:41:22.192Z,10.82
2023-02-14T16:43:51.247Z,10.79
2023-02-14T16:46:23.120Z,10.74
2023-02-14T16:48:52.528Z,10.68
2023-02-14T16:51:23.438Z,10.60
2023-02-14T16:53:52.229Z,10.56
2023-02-14T16:56:24.907Z,10.51
2023-02-14T16:58:52.985Z,10.44
2023-02-14T17:01:21.048Z,10.36
2023-02-14T17:03:49.046Z,10.32
2023-02-14T17:06:27.345Z,10.28
2023-02-14T17:08:57.492Z,10.18
2023-02-14T17:11:31.811Z,10.15
2023-02-14T17:14:00.274Z,10.08
2023-02-14T17:16:30.560Z,9.95
2023-02-14T17:18:58.970Z,9.90
2023-02-14T17:21:26.954Z,9.73
2023-02-14T17:23:55.554Z,9.61
2023-02-14T17:26:23.791Z,9.55
2023-02-14T17:28:53.148Z,9.38
2023-02-14T17:31:21.459Z,9.31
2023-02-14T17:33:49.530Z,9.27
2023-02-14T17:36:17.666Z,9.27
2023-02-14T17:38:45.652Z,9.33
2023-02-14T17:41:16.826Z,9.28
2023-02-14T17:43:44.996Z,9.27
2023-02-14T17:46:15.865Z,9.32
2023-02-14T17:48:45.391Z,9.27
2023-02-14T17:51:16.094Z,9.09
2023-02-14T17:53:44.848Z,9.07
2023-02-14T17:56:21.109Z,8.89
2023-02-14T17:58:51.660Z,8.74
2023-02-14T18:01:23.735Z,8.74
2023-02-14T18:03:52.471Z,8.71
2023-02-14T18:06:21.546Z,8.54
2023-02-14T18:08:53.604Z,8.52
2023-02-14T18:11:22.538Z,8.49
2023-02-14T18:13:51.324Z,8.46
2023-02-14T18:16:20.813Z,8.58
2023-02-14T18:18:49.187Z,8.47
2023-02-14T18:21:20.815Z,8.45
2023-02-14T18:23:49.182Z,8.33
2023-02-14T18:26:18.954Z,8.29
2023-02-14T18:28:47.028Z,8.08
2023-02-14T18:31:18.001Z,8.12
2023-02-14T18:33:49.682Z,8.16
2023-02-14T18:36:21.697Z,8.09
2023-02-14T18:38:50.667Z,8.14
2023-02-14T18:41:20.604Z,8.30
2023-02-14T18:43:49.882Z,8.24
2023-02-14T18:46:21.356Z,8.27
2023-02-14T18:48:51.816Z,8.34
2023-02-14T18:51:22.573Z,8.36
2023-02-14T18:53:52.742Z,8.41
2023-02-14T18:56:23.534Z,8.37
2023-02-14T18:58:56.466Z,8.37
2023-02-14T19:01:29.493Z,8.34
2023-02-14T19:04:01.081Z,8.20
2023-02-14T19:06:31.899Z,8.21
2023-02-14T19:09:01.489Z,8.28
2023-02-14T19:11:32.930Z,8.27
2023-02-14T19:14:05.183Z,8.24
2023-02-14T19:16:36.676Z,8.20
2023-02-14T19:19:06.427Z,8.16
2023-02-14T19:21:36.638Z,8.18
2023-02-14T19:24:07.829Z,8.17
2023-02-14T19:26:40.738Z,8.09
2023-02-14T19:29:12.419Z,8.05
2023-02-14T19:31:43.960Z,7.98
2023-02-14T19:34:19.145Z,7.95
2023-02-14T19:36:48.187Z,7.88
2023-02-14T19:39:17.177Z,7.81
2023-02-14T19:41:46.365Z,7.74
2023-02-14T19:44:16.994Z,7.65
2023-02-14T19:46:47.715Z,7.65
2023-02-14T19:49:20.382Z,7.57
2023-02-14T19:51:51.080Z,7.52
2023-02-14T19:54:19.636Z,7.40
2023-02-14T19:56:48.885Z,7.29
2023-02-14T19:59:21.713Z,7.27
2023-02-14T20:01:52.182Z,7.25
2023-02-14T20:04:23.737Z,7.19
2023-02-14T20:06:53.370Z,7.11
2023-02-14T20:09:22.761Z,7.13
2023-02-14T20:11:54.292Z,7.12
2023-02-14T20:14:24.973Z,7.08
2023-02-14T20:16:55.367Z,6.94
2023-02-14T20:19:27.935Z,6.91
2023-02-14T20:21:56.114Z,6.91
2023-02-14T20:24:26.905Z,6.90
2023-02-14T20:26:56.231Z,6.84
2023-02-14T20:29:26.370Z,6.80
2023-02-14T20:31:58.038Z,6.84
2023-02-14T20:34:28.003Z,6.82
2023-02-14T20:36:56.381Z,6.80
2023-02-14T20:39:30.420Z,6.73
2023-02-14T20:41:58.515Z,6.71
2023-02-14T20:44:27.069Z,6.76
2023-02-14T20:46:56.829Z,6.65
2023-02-14T20:49:29.826Z,6.63
2023-02-14T20:51:58.456Z,6.60
2023-02-14T20:54:29.085Z,6.40
2023-02-14T20:56:58.395Z,6.46
2023-02-14T20:59:28.483Z,6.45
2023-02-14T21:01:58.557Z,6.47
2023-02-14T21:04:29.479Z,6.60
2023-02-14T21:07:00.112Z,6.53
2023-02-14T21:09:28.307Z,6.57
2023-02-14T21:11:57.961Z,6.76
2023-02-14T21:14:26.125Z,6.79
2023-02-14T21:16:54.152Z,6.77
2023-02-14T21:19:22.336Z,6.69
2023-02-14T21:21:51.813Z,6.64
2023-02-14T21:24:19.898Z,6.58
2023-02-14T21:26:47.904Z,6.57
2023-02-14T21:29:15.923Z,6.47
2023-02-14T21:31:44.037Z,6.52
2023-02-14T21:34:12.296Z,6.52
2023-02-14T21:36:40.322Z,6.54
2023-02-14T21:39:09.676Z,6.52
2023-02-14T21:41:38.356Z,6.44
2023-02-14T21:44:07.149Z,6.40
2023-02-14T21:46:38.717Z,6.38
2023-02-14T21:49:25.406Z,6.38
2023-02-14T21:51:53.654Z,6.31
2023-02-14T21:54:22.990Z,6.26
2023-02-14T21:56:51.123Z,6.18
2023-02-14T21:59:19.219Z,6.05
2023-02-14T22:01:47.436Z,6.01
2023-02-14T22:04:15.566Z,6.05
2023-02-14T22:06:44.226Z,6.14
2023-02-14T22:09:17.312Z,6.14
2023-02-14T22:11:47.478Z,6.11
2023-02-14T22:14:15.907Z,6.07
2023-02-14T22:16:43.916Z,5.99
2023-02-14T22:19:15.778Z,6.08
2023-02-14T22:21:44.341Z,6.10
2023-02-14T22:24:12.683Z,6.05
2023-02-14T22:26:41.560Z,6.07
2023-02-14T22:29:13.417Z,5.97
2023-02-14T22:31:43.927Z,5.79
2023-02-14T22:34:14.971Z,5.84
2023-02-14T22:36:43.088Z,5.83
2023-02-14T22:39:14.170Z,5.84
2023-02-14T22:41:42.203Z,5.82
2023-02-14T22:44:13.390Z,5.81
2023-02-14T22:46:41.814Z,5.81
2023-02-14T22:49:09.936Z,5.86
2023-02-14T22:51:41.222Z,5.83
2023-02-14T22:54:13.448Z,5.84
2023-02-14T22:56:44.371Z,5.84
2023-02-14T22:59:19.436Z,5.80
2023-02-14T23:01:48.620Z,5.81
2023-02-14T23:04:18.540Z,5.86
2023-02-14T23:06:46.815Z,5.79
2023-02-14T23:09:16.295Z,5.74
2023-02-14T23:11:47.015Z,5.73
2023-02-14T23:14:35.820Z,5.71
2023-02-14T23:17:22.477Z,5.64
2023-02-14T23:20:07.958Z,5.66
2023-02-14T23:22:38.731Z,5.72
2023-02-14T23:25:09.476Z,5.64
2023-02-14T23:27:40.731Z,5.55
2023-02-14T23:30:15.027Z,5.59
2023-02-14T23:32:43.605Z,5.62
2023-02-14T23:35:11.875Z,5.67
2023-02-14T23:37:40.078Z,5.60
2023-02-14T23:40:10.229Z,5.58
2023-02-14T23:42:38.448Z,5.61
2023-02-14T23:45:25.205Z,5.61
2023-02-14T23:47:54.630Z,5.59
2023-02-14T23:50:22.681Z,5.65
2023-02-14T23:52:50.740Z,5.61
2023-02-14T23:55:18.928Z,5.59
2023-02-14T23:57:47.020Z,5.55
